sensor_id;sensor_type;location;lat;lon;timestamp;P1;durP1;ratioP1;P2;durP2;ratioP2
19278;SDS011;9773;47.062;15.446;2023-05-07T00:00:03;8.03;;;7.23;;
19278;SDS011;9773;47.062;15.446;2023-05-07T00:02:33;7.83;;;7.03;;
19278;SDS011;9773;47.062;15.446;2023-05-07T00:04:59;6.70;;;6.10;;
19278;SDS011;9773;47.062;15.446;2023-05-07T00:07:24;7.03;;;6.40;;
19278;SDS011;9773;47.062;15.446;2023-05-07T00:09:50;5.70;;;5.13;;
19278;SDS011;9773;47.062;15.446;2023-05-07T00:12:16;5.67;;;5.17;;
19278;SDS011;9773;47.062;15.446;2023-05-07T00:14:42;5.33;;;4.93;;
19278;SDS011;9773;47.062;15.446;2023-05-07T00:17:07;5.80;;;5.30;;
19278;SDS011;9773;47.062;15.446;2023-05-07T00:19:33;5.10;;;4.67;;
19278;SDS011;9773;47.062;15.446;2023-05-07T00:21:59;5.53;;;5.03;;
19278;SDS011;9773;47.062;15.446;2023-05-07T00:24:25;5.37;;;4.97;;
19278;SDS011;9773;47.062;15.446;2023-05-07T00:26:50;5.87;;;5.33;;
19278;SDS011;9773;47.062;15.446;2023-05-07T00:29:17;4.60;;;4.30;;
19278;SDS011;9773;47.062;15.446;2023-05-07T00:31:43;6.93;;;5.50;;
19278;SDS011;9773;47.062;15.446;2023-05-07T00:34:09;5.17;;;4.70;;
19278;SDS011;9773;47.062;15.446;2023-05-07T00:36:35;6.70;;;4.87;;
19278;SDS011;9773;47.062;15.446;2023-05-07T00:39:01;5.40;;;4.90;;
19278;SDS011;9773;47.062;15.446;2023-05-07T00:41:29;5.60;;;5.10;;
19278;SDS011;9773;47.062;15.446;2023-05-07T00:43:56;5.37;;;4.97;;
19278;SDS011;9773;47.062;15.446;2023-05-07T00:46:22;5.53;;;5.00;;
19278;SDS011;9773;47.062;15.446;2023-05-07T00:48:49;5.30;;;4.90;;
19278;SDS011;9773;47.062;15.446;2023-05-07T00:51:16;5.87;;;5.37;;
19278;SDS011;9773;47.062;15.446;2023-05-07T00:53:46;5.40;;;5.00;;
19278;SDS011;9773;47.062;15.446;2023-05-07T00:56:12;5.77;;;5.27;;
19278;SDS011;9773;47.062;15.446;2023-05-07T00:58:38;5.33;;;4.83;;
19278;SDS011;9773;47.062;15.446;2023-05-07T01:01:04;5.53;;;5.03;;
19278;SDS011;9773;47.062;15.446;2023-05-07T01:03:29;5.40;;;4.90;;
19278;SDS011;9773;47.062;15.446;2023-05-07T01:05:55;5.40;;;5.00;;
19278;SDS011;9773;47.062;15.446;2023-05-07T01:08:24;5.57;;;5.13;;
19278;SDS011;9773;47.062;15.446;2023-05-07T01:10:53;5.87;;;5.27;;
19278;SDS011;9773;47.062;15.446;2023-05-07T01:13:20;5.60;;;5.10;;
19278;SDS011;9773;47.062;15.446;2023-05-07T01:15:49;5.33;;;4.93;;
19278;SDS011;9773;47.062;15.446;2023-05-07T01:18:15;5.13;;;4.70;;
19278;SDS011;9773;47.062;15.446;2023-05-07T01:20:41;4.70;;;4.40;;
19278;SDS011;9773;47.062;15.446;2023-05-07T01:23:07;4.00;;;3.70;;
19278;SDS011;9773;47.062;15.446;2023-05-07T01:25:34;3.57;;;3.37;;
19278;SDS011;9773;47.062;15.446;2023-05-07T01:28:00;3.50;;;3.30;;
19278;SDS011;9773;47.062;15.446;2023-05-07T01:30:26;3.83;;;3.53;;
19278;SDS011;9773;47.062;15.446;2023-05-07T01:32:58;3.67;;;3.37;;
19278;SDS011;9773;47.062;15.446;2023-05-07T01:35:30;3.83;;;3.30;;
19278;SDS011;9773;47.062;15.446;2023-05-07T01:38:01;3.37;;;3.07;;
19278;SDS011;9773;47.062;15.446;2023-05-07T01:40:29;3.73;;;3.53;;
19278;SDS011;9773;47.062;15.446;2023-05-07T01:42:55;3.43;;;3.23;;
19278;SDS011;9773;47.062;15.446;2023-05-07T01:45:22;3.67;;;3.40;;
19278;SDS011;9773;47.062;15.446;2023-05-07T01:47:49;3.97;;;3.67;;
19278;SDS011;9773;47.062;15.446;2023-05-07T01:50:15;3.30;;;3.10;;
19278;SDS011;9773;47.062;15.446;2023-05-07T01:52:43;3.97;;;3.67;;
19278;SDS011;9773;47.062;15.446;2023-05-07T01:55:09;3.60;;;3.40;;
19278;SDS011;9773;47.062;15.446;2023-05-07T01:57:35;5.50;;;3.73;;
19278;SDS011;9773;47.062;15.446;2023-05-07T02:00:01;4.17;;;3.87;;
19278;SDS011;9773;47.062;15.446;2023-05-07T02:02:27;4.00;;;3.70;;
19278;SDS011;9773;47.062;15.446;2023-05-07T02:04:53;4.03;;;3.63;;
19278;SDS011;9773;47.062;15.446;2023-05-07T02:07:19;3.60;;;3.40;;
19278;SDS011;9773;47.062;15.446;2023-05-07T02:09:45;3.70;;;3.40;;
19278;SDS011;9773;47.062;15.446;2023-05-07T02:12:10;4.00;;;3.80;;
19278;SDS011;9773;47.062;15.446;2023-05-07T02:14:36;4.20;;;3.80;;
19278;SDS011;9773;47.062;15.446;2023-05-07T02:17:02;3.67;;;3.37;;
19278;SDS011;9773;47.062;15.446;2023-05-07T02:19:28;4.30;;;4.00;;
19278;SDS011;9773;47.062;15.446;2023-05-07T02:21:54;3.90;;;3.53;;
19278;SDS011;9773;47.062;15.446;2023-05-07T02:24:20;3.67;;;3.30;;
19278;SDS011;9773;47.062;15.446;2023-05-07T02:26:46;3.57;;;3.37;;
19278;SDS011;9773;47.062;15.446;2023-05-07T02:29:11;3.53;;;3.33;;
19278;SDS011;9773;47.062;15.446;2023-05-07T02:31:37;3.30;;;3.10;;
19278;SDS011;9773;47.062;15.446;2023-05-07T02:34:03;3.30;;;3.10;;
19278;SDS011;9773;47.062;15.446;2023-05-07T02:36:29;3.20;;;3.00;;
19278;SDS011;9773;47.062;15.446;2023-05-07T02:38:54;2.90;;;2.80;;
19278;SDS011;9773;47.062;15.446;2023-05-07T02:41:20;3.60;;;3.40;;
19278;SDS011;9773;47.062;15.446;2023-05-07T02:43:46;3.40;;;3.20;;
19278;SDS011;9773;47.062;15.446;2023-05-07T02:46:12;4.50;;;3.73;;
19278;SDS011;9773;47.062;15.446;2023-05-07T02:48:38;3.73;;;3.43;;
19278;SDS011;9773;47.062;15.446;2023-05-07T02:51:03;3.80;;;3.50;;
19278;SDS011;9773;47.062;15.446;2023-05-07T02:53:30;3.80;;;3.50;;
19278;SDS011;9773;47.062;15.446;2023-05-07T02:55:56;3.50;;;3.30;;
19278;SDS011;9773;47.062;15.446;2023-05-07T02:58:23;3.80;;;3.50;;
19278;SDS011;9773;47.062;15.446;2023-05-07T03:00:49;3.47;;;3.27;;
19278;SDS011;9773;47.062;15.446;2023-05-07T03:03:15;3.63;;;3.43;;
19278;SDS011;9773;47.062;15.446;2023-05-07T03:05:41;3.97;;;3.67;;
19278;SDS011;9773;47.062;15.446;2023-05-07T03:08:07;3.77;;;3.57;;
19278;SDS011;9773;47.062;15.446;2023-05-07T03:10:33;3.77;;;3.47;;
19278;SDS011;9773;47.062;15.446;2023-05-07T03:13:00;3.53;;;3.30;;
19278;SDS011;9773;47.062;15.446;2023-05-07T03:15:26;3.57;;;3.10;;
19278;SDS011;9773;47.062;15.446;2023-05-07T03:17:52;3.57;;;3.30;;
19278;SDS011;9773;47.062;15.446;2023-05-07T03:20:18;3.60;;;3.40;;
19278;SDS011;9773;47.062;15.446;2023-05-07T03:22:44;3.60;;;3.30;;
19278;SDS011;9773;47.062;15.446;2023-05-07T03:25:09;3.40;;;3.20;;
19278;SDS011;9773;47.062;15.446;2023-05-07T03:27:35;3.20;;;3.00;;
19278;SDS011;9773;47.062;15.446;2023-05-07T03:30:02;3.70;;;3.50;;
19278;SDS011;9773;47.062;15.446;2023-05-07T03:32:29;4.20;;;3.37;;
19278;SDS011;9773;47.062;15.446;2023-05-07T03:34:55;3.53;;;3.30;;
19278;SDS011;9773;47.062;15.446;2023-05-07T03:37:20;3.93;;;3.50;;
19278;SDS011;9773;47.062;15.446;2023-05-07T03:39:49;3.57;;;3.37;;
19278;SDS011;9773;47.062;15.446;2023-05-07T03:42:15;4.00;;;3.60;;
19278;SDS011;9773;47.062;15.446;2023-05-07T03:44:41;3.70;;;3.50;;
19278;SDS011;9773;47.062;15.446;2023-05-07T03:47:06;3.73;;;3.43;;
19278;SDS011;9773;47.062;15.446;2023-05-07T03:49:32;3.93;;;3.67;;
19278;SDS011;9773;47.062;15.446;2023-05-07T03:51:58;3.50;;;3.30;;
19278;SDS011;9773;47.062;15.446;2023-05-07T03:54:24;3.50;;;3.30;;
19278;SDS011;9773;47.062;15.446;2023-05-07T03:56:53;3.80;;;3.50;;
19278;SDS011;9773;47.062;15.446;2023-05-07T03:59:18;3.93;;;3.40;;
19278;SDS011;9773;47.062;15.446;2023-05-07T04:01:44;4.03;;;3.73;;
19278;SDS011;9773;47.062;15.446;2023-05-07T04:04:10;4.10;;;3.50;;
19278;SDS011;9773;47.062;15.446;2023-05-07T04:06:36;3.53;;;3.33;;
19278;SDS011;9773;47.062;15.446;2023-05-07T04:09:03;3.70;;;3.47;;
19278;SDS011;9773;47.062;15.446;2023-05-07T04:11:29;4.07;;;3.73;;
19278;SDS011;9773;47.062;15.446;2023-05-07T04:13:54;3.30;;;3.10;;
19278;SDS011;9773;47.062;15.446;2023-05-07T04:16:20;3.70;;;3.40;;
19278;SDS011;9773;47.062;15.446;2023-05-07T04:18:46;3.50;;;3.30;;
19278;SDS011;9773;47.062;15.446;2023-05-07T04:21:15;4.60;;;3.93;;
19278;SDS011;9773;47.062;15.446;2023-05-07T04:23:46;3.63;;;3.43;;
19278;SDS011;9773;47.062;15.446;2023-05-07T04:26:12;3.83;;;3.27;;
19278;SDS011;9773;47.062;15.446;2023-05-07T04:28:38;3.60;;;3.40;;
19278;SDS011;9773;47.062;15.446;2023-05-07T04:31:05;4.10;;;3.63;;
19278;SDS011;9773;47.062;15.446;2023-05-07T04:33:31;4.10;;;3.80;;
19278;SDS011;9773;47.062;15.446;2023-05-07T04:35:58;4.30;;;4.00;;
19278;SDS011;9773;47.062;15.446;2023-05-07T04:38:28;3.60;;;3.40;;
19278;SDS011;9773;47.062;15.446;2023-05-07T04:40:55;4.10;;;3.80;;
19278;SDS011;9773;47.062;15.446;2023-05-07T04:43:22;4.73;;;3.47;;
19278;SDS011;9773;47.062;15.446;2023-05-07T04:45:49;3.70;;;3.50;;
19278;SDS011;9773;47.062;15.446;2023-05-07T04:48:15;3.70;;;3.50;;
19278;SDS011;9773;47.062;15.446;2023-05-07T04:50:44;4.40;;;4.10;;
19278;SDS011;9773;47.062;15.446;2023-05-07T04:53:12;3.70;;;3.50;;
19278;SDS011;9773;47.062;15.446;2023-05-07T04:55:38;3.60;;;3.30;;
19278;SDS011;9773;47.062;15.446;2023-05-07T04:58:03;5.50;;;3.37;;
19278;SDS011;9773;47.062;15.446;2023-05-07T05:00:30;4.40;;;3.87;;
19278;SDS011;9773;47.062;15.446;2023-05-07T05:02:56;3.83;;;3.53;;
19278;SDS011;9773;47.062;15.446;2023-05-07T05:05:21;3.73;;;3.50;;
19278;SDS011;9773;47.062;15.446;2023-05-07T05:07:47;3.57;;;3.37;;
19278;SDS011;9773;47.062;15.446;2023-05-07T05:10:13;3.87;;;3.40;;
19278;SDS011;9773;47.062;15.446;2023-05-07T05:12:39;3.87;;;3.50;;
19278;SDS011;9773;47.062;15.446;2023-05-07T05:15:05;3.63;;;3.33;;
19278;SDS011;9773;47.062;15.446;2023-05-07T05:17:31;4.43;;;4.03;;
19278;SDS011;9773;47.062;15.446;2023-05-07T05:19:59;3.97;;;3.67;;
19278;SDS011;9773;47.062;15.446;2023-05-07T05:22:25;3.30;;;3.20;;
19278;SDS011;9773;47.062;15.446;2023-05-07T05:24:50;3.67;;;3.30;;
19278;SDS011;9773;47.062;15.446;2023-05-07T05:27:16;4.17;;;2.97;;
19278;SDS011;9773;47.062;15.446;2023-05-07T05:29:42;3.17;;;2.97;;
19278;SDS011;9773;47.062;15.446;2023-05-07T05:32:07;3.10;;;2.87;;
19278;SDS011;9773;47.062;15.446;2023-05-07T05:34:33;3.17;;;2.97;;
19278;SDS011;9773;47.062;15.446;2023-05-07T05:36:59;3.10;;;2.90;;
19278;SDS011;9773;47.062;15.446;2023-05-07T05:39:25;3.50;;;3.30;;
19278;SDS011;9773;47.062;15.446;2023-05-07T05:41:50;3.20;;;3.00;;
19278;SDS011;9773;47.062;15.446;2023-05-07T05:44:16;3.17;;;2.97;;
19278;SDS011;9773;47.062;15.446;2023-05-07T05:46:42;3.17;;;2.97;;
19278;SDS011;9773;47.062;15.446;2023-05-07T05:49:08;3.23;;;3.03;;
19278;SDS011;9773;47.062;15.446;2023-05-07T05:51:33;3.10;;;2.90;;
19278;SDS011;9773;47.062;15.446;2023-05-07T05:54:00;2.80;;;2.70;;
19278;SDS011;9773;47.062;15.446;2023-05-07T05:56:26;3.13;;;2.87;;
19278;SDS011;9773;47.062;15.446;2023-05-07T05:58:52;3.50;;;2.90;;
19278;SDS011;9773;47.062;15.446;2023-05-07T06:01:19;2.70;;;2.60;;
19278;SDS011;9773;47.062;15.446;2023-05-07T06:03:45;2.63;;;2.47;;
19278;SDS011;9773;47.062;15.446;2023-05-07T06:06:10;2.90;;;2.70;;
19278;SDS011;9773;47.062;15.446;2023-05-07T06:08:36;2.90;;;2.77;;
19278;SDS011;9773;47.062;15.446;2023-05-07T06:11:02;3.37;;;3.17;;
19278;SDS011;9773;47.062;15.446;2023-05-07T06:13:28;3.27;;;2.80;;
19278;SDS011;9773;47.062;15.446;2023-05-07T06:15:54;2.97;;;2.87;;
19278;SDS011;9773;47.062;15.446;2023-05-07T06:18:19;2.47;;;2.37;;
19278;SDS011;9773;47.062;15.446;2023-05-07T06:20:45;2.80;;;2.70;;
19278;SDS011;9773;47.062;15.446;2023-05-07T06:23:11;4.67;;;4.37;;
19278;SDS011;9773;47.062;15.446;2023-05-07T06:25:37;3.37;;;3.10;;
19278;SDS011;9773;47.062;15.446;2023-05-07T06:28:02;2.97;;;2.77;;
19278;SDS011;9773;47.062;15.446;2023-05-07T06:30:28;3.17;;;3.07;;
19278;SDS011;9773;47.062;15.446;2023-05-07T06:32:54;5.10;;;4.70;;
19278;SDS011;9773;47.062;15.446;2023-05-07T06:35:19;2.80;;;2.70;;
19278;SDS011;9773;47.062;15.446;2023-05-07T06:37:45;3.10;;;2.80;;
19278;SDS011;9773;47.062;15.446;2023-05-07T06:40:12;3.53;;;3.23;;
19278;SDS011;9773;47.062;15.446;2023-05-07T06:42:38;2.97;;;2.77;;
19278;SDS011;9773;47.062;15.446;2023-05-07T06:45:04;3.10;;;2.90;;
19278;SDS011;9773;47.062;15.446;2023-05-07T06:47:30;3.80;;;3.50;;
19278;SDS011;9773;47.062;15.446;2023-05-07T06:49:56;3.23;;;2.60;;
19278;SDS011;9773;47.062;15.446;2023-05-07T06:52:21;2.60;;;2.50;;
19278;SDS011;9773;47.062;15.446;2023-05-07T06:54:47;2.73;;;2.63;;
19278;SDS011;9773;47.062;15.446;2023-05-07T06:57:13;2.80;;;2.60;;
19278;SDS011;9773;47.062;15.446;2023-05-07T06:59:38;2.23;;;2.13;;
19278;SDS011;9773;47.062;15.446;2023-05-07T07:02:04;2.47;;;2.37;;
19278;SDS011;9773;47.062;15.446;2023-05-07T07:04:30;2.57;;;2.47;;
19278;SDS011;9773;47.062;15.446;2023-05-07T07:06:56;2.47;;;2.27;;
19278;SDS011;9773;47.062;15.446;2023-05-07T07:09:22;2.40;;;2.30;;
19278;SDS011;9773;47.062;15.446;2023-05-07T07:11:48;2.60;;;2.50;;
19278;SDS011;9773;47.062;15.446;2023-05-07T07:14:13;2.93;;;2.80;;
19278;SDS011;9773;47.062;15.446;2023-05-07T07:16:39;2.57;;;2.47;;
19278;SDS011;9773;47.062;15.446;2023-05-07T07:19:05;2.50;;;2.40;;
19278;SDS011;9773;47.062;15.446;2023-05-07T07:21:31;2.60;;;2.50;;
19278;SDS011;9773;47.062;15.446;2023-05-07T07:23:57;3.20;;;2.90;;
19278;SDS011;9773;47.062;15.446;2023-05-07T07:26:23;2.80;;;2.60;;
19278;SDS011;9773;47.062;15.446;2023-05-07T07:28:48;2.87;;;2.77;;
19278;SDS011;9773;47.062;15.446;2023-05-07T07:31:14;3.40;;;3.20;;
19278;SDS011;9773;47.062;15.446;2023-05-07T07:33:40;2.70;;;2.60;;
19278;SDS011;9773;47.062;15.446;2023-05-07T07:36:08;3.20;;;3.00;;
19278;SDS011;9773;47.062;15.446;2023-05-07T07:38:34;2.90;;;2.70;;
19278;SDS011;9773;47.062;15.446;2023-05-07T07:41:00;3.07;;;2.87;;
19278;SDS011;9773;47.062;15.446;2023-05-07T07:43:26;3.20;;;3.00;;
19278;SDS011;9773;47.062;15.446;2023-05-07T07:45:52;3.67;;;3.47;;
19278;SDS011;9773;47.062;15.446;2023-05-07T07:48:18;3.40;;;3.10;;
19278;SDS011;9773;47.062;15.446;2023-05-07T07:50:44;3.67;;;3.17;;
19278;SDS011;9773;47.062;15.446;2023-05-07T07:53:10;3.30;;;3.10;;
19278;SDS011;9773;47.062;15.446;2023-05-07T07:55:39;3.13;;;2.93;;
19278;SDS011;9773;47.062;15.446;2023-05-07T07:58:05;3.33;;;3.13;;
19278;SDS011;9773;47.062;15.446;2023-05-07T08:00:31;3.63;;;2.90;;
19278;SDS011;9773;47.062;15.446;2023-05-07T08:02:56;3.13;;;2.97;;
19278;SDS011;9773;47.062;15.446;2023-05-07T08:05:22;3.33;;;3.13;;
19278;SDS011;9773;47.062;15.446;2023-05-07T08:07:48;3.23;;;3.03;;
19278;SDS011;9773;47.062;15.446;2023-05-07T08:10:18;3.20;;;3.10;;
19278;SDS011;9773;47.062;15.446;2023-05-07T08:12:47;3.60;;;3.40;;
19278;SDS011;9773;47.062;15.446;2023-05-07T08:15:14;3.20;;;3.00;;
19278;SDS011;9773;47.062;15.446;2023-05-07T08:17:39;3.50;;;3.17;;
19278;SDS011;9773;47.062;15.446;2023-05-07T08:20:05;3.50;;;3.20;;
19278;SDS011;9773;47.062;15.446;2023-05-07T08:22:32;3.60;;;3.40;;
19278;SDS011;9773;47.062;15.446;2023-05-07T08:25:01;3.97;;;3.70;;
19278;SDS011;9773;47.062;15.446;2023-05-07T08:27:27;3.70;;;3.40;;
19278;SDS011;9773;47.062;15.446;2023-05-07T08:29:53;3.93;;;3.73;;
19278;SDS011;9773;47.062;15.446;2023-05-07T08:32:20;3.47;;;3.23;;
19278;SDS011;9773;47.062;15.446;2023-05-07T08:34:46;2.93;;;2.83;;
19278;SDS011;9773;47.062;15.446;2023-05-07T08:37:12;3.47;;;3.20;;
19278;SDS011;9773;47.062;15.446;2023-05-07T08:39:38;3.33;;;3.03;;
19278;SDS011;9773;47.062;15.446;2023-05-07T08:42:04;4.63;;;2.93;;
19278;SDS011;9773;47.062;15.446;2023-05-07T08:44:33;3.30;;;3.10;;
19278;SDS011;9773;47.062;15.446;2023-05-07T08:47:02;2.93;;;2.83;;
19278;SDS011;9773;47.062;15.446;2023-05-07T08:49:30;3.00;;;2.80;;
19278;SDS011;9773;47.062;15.446;2023-05-07T08:51:56;3.30;;;3.00;;
19278;SDS011;9773;47.062;15.446;2023-05-07T08:54:22;3.13;;;2.93;;
19278;SDS011;9773;47.062;15.446;2023-05-07T08:56:49;3.30;;;3.10;;
19278;SDS011;9773;47.062;15.446;2023-05-07T08:59:15;3.30;;;3.10;;
19278;SDS011;9773;47.062;15.446;2023-05-07T09:01:41;3.20;;;3.10;;
19278;SDS011;9773;47.062;15.446;2023-05-07T09:04:07;3.03;;;2.83;;
19278;SDS011;9773;47.062;15.446;2023-05-07T09:06:34;3.97;;;2.90;;
19278;SDS011;9773;47.062;15.446;2023-05-07T09:09:00;2.97;;;2.77;;
19278;SDS011;9773;47.062;15.446;2023-05-07T09:11:26;3.23;;;3.03;;
19278;SDS011;9773;47.062;15.446;2023-05-07T09:13:55;2.87;;;2.77;;
19278;SDS011;9773;47.062;15.446;2023-05-07T09:16:23;3.00;;;2.80;;
19278;SDS011;9773;47.062;15.446;2023-05-07T09:18:53;2.90;;;2.77;;
19278;SDS011;9773;47.062;15.446;2023-05-07T09:21:20;2.73;;;2.63;;
19278;SDS011;9773;47.062;15.446;2023-05-07T09:23:48;2.60;;;2.50;;
19278;SDS011;9773;47.062;15.446;2023-05-07T09:26:18;2.70;;;2.60;;
19278;SDS011;9773;47.062;15.446;2023-05-07T09:28:46;2.90;;;2.80;;
19278;SDS011;9773;47.062;15.446;2023-05-07T09:31:12;2.77;;;2.60;;
19278;SDS011;9773;47.062;15.446;2023-05-07T09:33:38;3.10;;;2.90;;
19278;SDS011;9773;47.062;15.446;2023-05-07T09:36:05;3.30;;;3.10;;
19278;SDS011;9773;47.062;15.446;2023-05-07T09:38:33;3.20;;;3.10;;
19278;SDS011;9773;47.062;15.446;2023-05-07T09:41:03;2.97;;;2.77;;
19278;SDS011;9773;47.062;15.446;2023-05-07T09:43:34;3.60;;;3.10;;
19278;SDS011;9773;47.062;15.446;2023-05-07T09:46:23;3.07;;;2.87;;
19278;SDS011;9773;47.062;15.446;2023-05-07T09:48:50;3.00;;;2.87;;
19278;SDS011;9773;47.062;15.446;2023-05-07T09:51:25;2.57;;;2.47;;
19278;SDS011;9773;47.062;15.446;2023-05-07T09:53:55;3.00;;;2.90;;
19278;SDS011;9773;47.062;15.446;2023-05-07T09:56:21;3.40;;;3.20;;
19278;SDS011;9773;47.062;15.446;2023-05-07T09:58:49;2.77;;;2.67;;
19278;SDS011;9773;47.062;15.446;2023-05-07T10:01:19;6.93;;;5.73;;
19278;SDS011;9773;47.062;15.446;2023-05-07T10:03:47;3.63;;;3.43;;
19278;SDS011;9773;47.062;15.446;2023-05-07T10:06:15;3.37;;;3.17;;
19278;SDS011;9773;47.062;15.446;2023-05-07T10:08:42;2.80;;;2.70;;
19278;SDS011;9773;47.062;15.446;2023-05-07T10:11:09;3.00;;;2.70;;
19278;SDS011;9773;47.062;15.446;2023-05-07T10:13:35;2.87;;;2.77;;
19278;SDS011;9773;47.062;15.446;2023-05-07T10:16:03;3.80;;;2.93;;
19278;SDS011;9773;47.062;15.446;2023-05-07T10:18:30;3.00;;;2.80;;
19278;SDS011;9773;47.062;15.446;2023-05-07T10:21:08;2.77;;;2.60;;
19278;SDS011;9773;47.062;15.446;2023-05-07T10:23:38;2.37;;;2.27;;
19278;SDS011;9773;47.062;15.446;2023-05-07T10:26:05;3.23;;;2.73;;
19278;SDS011;9773;47.062;15.446;2023-05-07T10:28:34;3.60;;;3.40;;
19278;SDS011;9773;47.062;15.446;2023-05-07T10:33:44;2.70;;;2.60;;
19278;SDS011;9773;47.062;15.446;2023-05-07T10:36:11;3.00;;;2.80;;
19278;SDS011;9773;47.062;15.446;2023-05-07T10:38:37;2.43;;;2.23;;
19278;SDS011;9773;47.062;15.446;2023-05-07T10:41:05;2.05;;;2.00;;
19278;SDS011;9773;47.062;15.446;2023-05-07T10:43:41;2.63;;;2.43;;
19278;SDS011;9773;47.062;15.446;2023-05-07T10:46:17;2.60;;;2.50;;
19278;SDS011;9773;47.062;15.446;2023-05-07T10:51:29;2.63;;;2.53;;
19278;SDS011;9773;47.062;15.446;2023-05-07T10:56:37;2.30;;;2.20;;
19278;SDS011;9773;47.062;15.446;2023-05-07T11:04:22;2.30;;;2.20;;
19278;SDS011;9773;47.062;15.446;2023-05-07T11:18:03;2.25;;;2.15;;
19278;SDS011;9773;47.062;15.446;2023-05-07T11:26:00;2.00;;;1.90;;
19278;SDS011;9773;47.062;15.446;2023-05-07T11:28:28;2.13;;;2.05;;
19278;SDS011;9773;47.062;15.446;2023-05-07T11:30:56;2.03;;;1.98;;
19278;SDS011;9773;47.062;15.446;2023-05-07T11:33:22;2.95;;;2.75;;
19278;SDS011;9773;47.062;15.446;2023-05-07T11:35:50;2.00;;;2.00;;
19278;SDS011;9773;47.062;15.446;2023-05-07T11:38:18;2.58;;;2.47;;
19278;SDS011;9773;47.062;15.446;2023-05-07T11:40:55;1.90;;;1.80;;
19278;SDS011;9773;47.062;15.446;2023-05-07T11:43:22;2.20;;;2.10;;
19278;SDS011;9773;47.062;15.446;2023-05-07T11:45:48;2.67;;;2.58;;
19278;SDS011;9773;47.062;15.446;2023-05-07T11:48:15;2.20;;;2.10;;
19278;SDS011;9773;47.062;15.446;2023-05-07T11:51:00;2.28;;;2.08;;
19278;SDS011;9773;47.062;15.446;2023-05-07T11:53:26;2.20;;;2.10;;
19278;SDS011;9773;47.062;15.446;2023-05-07T11:55:53;2.13;;;2.03;;
19278;SDS011;9773;47.062;15.446;2023-05-07T11:58:21;2.43;;;2.23;;
19278;SDS011;9773;47.062;15.446;2023-05-07T12:00:48;4.07;;;3.77;;
19278;SDS011;9773;47.062;15.446;2023-05-07T12:03:15;2.63;;;2.53;;
19278;SDS011;9773;47.062;15.446;2023-05-07T12:05:40;4.40;;;4.00;;
19278;SDS011;9773;47.062;15.446;2023-05-07T12:08:07;2.63;;;2.50;;
19278;SDS011;9773;47.062;15.446;2023-05-07T12:10:33;2.13;;;2.03;;
19278;SDS011;9773;47.062;15.446;2023-05-07T12:12:58;2.90;;;2.75;;
19278;SDS011;9773;47.062;15.446;2023-05-07T12:15:24;2.30;;;2.10;;
19278;SDS011;9773;47.062;15.446;2023-05-07T12:17:50;2.00;;;1.90;;
19278;SDS011;9773;47.062;15.446;2023-05-07T12:20:17;2.17;;;2.07;;
19278;SDS011;9773;47.062;15.446;2023-05-07T12:22:43;2.20;;;2.10;;
19278;SDS011;9773;47.062;15.446;2023-05-07T12:25:09;2.47;;;2.30;;
19278;SDS011;9773;47.062;15.446;2023-05-07T12:27:36;2.20;;;2.00;;
19278;SDS011;9773;47.062;15.446;2023-05-07T12:30:04;2.15;;;2.08;;
19278;SDS011;9773;47.062;15.446;2023-05-07T12:32:30;1.90;;;1.80;;
19278;SDS011;9773;47.062;15.446;2023-05-07T12:35:01;2.10;;;2.00;;
19278;SDS011;9773;47.062;15.446;2023-05-07T12:37:27;2.25;;;2.15;;
19278;SDS011;9773;47.062;15.446;2023-05-07T12:40:08;2.25;;;2.15;;
19278;SDS011;9773;47.062;15.446;2023-05-07T12:42:36;2.17;;;2.08;;
19278;SDS011;9773;47.062;15.446;2023-05-07T12:45:12;2.00;;;2.00;;
19278;SDS011;9773;47.062;15.446;2023-05-07T12:47:46;2.40;;;2.20;;
19278;SDS011;9773;47.062;15.446;2023-05-07T12:50:13;2.20;;;2.10;;
19278;SDS011;9773;47.062;15.446;2023-05-07T12:52:40;2.33;;;2.22;;
19278;SDS011;9773;47.062;15.446;2023-05-07T12:55:06;2.30;;;2.20;;
19278;SDS011;9773;47.062;15.446;2023-05-07T12:57:39;1.83;;;1.83;;
19278;SDS011;9773;47.062;15.446;2023-05-07T13:00:06;2.17;;;2.07;;
19278;SDS011;9773;47.062;15.446;2023-05-07T13:02:33;2.30;;;2.20;;
19278;SDS011;9773;47.062;15.446;2023-05-07T13:05:00;1.93;;;1.93;;
19278;SDS011;9773;47.062;15.446;2023-05-07T13:07:26;2.00;;;2.00;;
19278;SDS011;9773;47.062;15.446;2023-05-07T13:09:52;2.30;;;2.20;;
19278;SDS011;9773;47.062;15.446;2023-05-07T13:12:17;2.37;;;2.27;;
19278;SDS011;9773;47.062;15.446;2023-05-07T13:14:43;2.73;;;2.53;;
19278;SDS011;9773;47.062;15.446;2023-05-07T13:17:09;2.17;;;2.00;;
19278;SDS011;9773;47.062;15.446;2023-05-07T13:19:34;2.87;;;2.67;;
19278;SDS011;9773;47.062;15.446;2023-05-07T13:22:02;2.50;;;2.40;;
19278;SDS011;9773;47.062;15.446;2023-05-07T13:24:28;3.27;;;3.07;;
19278;SDS011;9773;47.062;15.446;2023-05-07T13:26:54;3.27;;;2.97;;
19278;SDS011;9773;47.062;15.446;2023-05-07T13:29:20;3.17;;;2.83;;
19278;SDS011;9773;47.062;15.446;2023-05-07T13:31:50;3.40;;;3.20;;
19278;SDS011;9773;47.062;15.446;2023-05-07T13:34:16;3.13;;;3.00;;
19278;SDS011;9773;47.062;15.446;2023-05-07T13:36:41;3.63;;;3.37;;
19278;SDS011;9773;47.062;15.446;2023-05-07T13:39:07;4.00;;;3.70;;
19278;SDS011;9773;47.062;15.446;2023-05-07T13:41:34;4.30;;;3.90;;
19278;SDS011;9773;47.062;15.446;2023-05-07T13:43:59;4.10;;;3.80;;
19278;SDS011;9773;47.062;15.446;2023-05-07T13:46:25;4.20;;;3.90;;
19278;SDS011;9773;47.062;15.446;2023-05-07T13:48:51;4.00;;;3.70;;
19278;SDS011;9773;47.062;15.446;2023-05-07T13:51:17;4.20;;;3.90;;
19278;SDS011;9773;47.062;15.446;2023-05-07T13:53:43;4.53;;;4.23;;
19278;SDS011;9773;47.062;15.446;2023-05-07T13:56:10;4.97;;;4.67;;
19278;SDS011;9773;47.062;15.446;2023-05-07T13:58:35;5.57;;;5.10;;
19278;SDS011;9773;47.062;15.446;2023-05-07T14:01:01;5.67;;;5.20;;
19278;SDS011;9773;47.062;15.446;2023-05-07T14:03:27;5.70;;;5.20;;
19278;SDS011;9773;47.062;15.446;2023-05-07T14:05:53;8.27;;;7.47;;
19278;SDS011;9773;47.062;15.446;2023-05-07T14:08:19;8.77;;;7.63;;
19278;SDS011;9773;47.062;15.446;2023-05-07T14:10:45;14.50;;;10.40;;
19278;SDS011;9773;47.062;15.446;2023-05-07T14:13:11;9.10;;;6.53;;
19278;SDS011;9773;47.062;15.446;2023-05-07T14:15:37;6.83;;;6.20;;
19278;SDS011;9773;47.062;15.446;2023-05-07T14:18:02;8.57;;;7.77;;
19278;SDS011;9773;47.062;15.446;2023-05-07T14:20:28;12.80;;;9.70;;
19278;SDS011;9773;47.062;15.446;2023-05-07T14:22:56;7.70;;;7.00;;
19278;SDS011;9773;47.062;15.446;2023-05-07T14:25:21;6.23;;;5.63;;
19278;SDS011;9773;47.062;15.446;2023-05-07T14:27:47;6.17;;;5.57;;
19278;SDS011;9773;47.062;15.446;2023-05-07T14:30:13;5.47;;;5.07;;
19278;SDS011;9773;47.062;15.446;2023-05-07T14:32:38;7.10;;;6.50;;
19278;SDS011;9773;47.062;15.446;2023-05-07T14:35:04;7.80;;;6.93;;
19278;SDS011;9773;47.062;15.446;2023-05-07T14:37:30;11.23;;;8.60;;
19278;SDS011;9773;47.062;15.446;2023-05-07T14:39:56;6.70;;;6.00;;
19278;SDS011;9773;47.062;15.446;2023-05-07T14:42:21;6.00;;;5.20;;
19278;SDS011;9773;47.062;15.446;2023-05-07T14:44:47;5.10;;;4.70;;
19278;SDS011;9773;47.062;15.446;2023-05-07T14:47:13;5.67;;;5.03;;
19278;SDS011;9773;47.062;15.446;2023-05-07T14:49:40;5.23;;;4.73;;
19278;SDS011;9773;47.062;15.446;2023-05-07T14:52:07;4.67;;;4.37;;
19278;SDS011;9773;47.062;15.446;2023-05-07T14:54:34;5.10;;;4.60;;
19278;SDS011;9773;47.062;15.446;2023-05-07T14:57:01;4.77;;;4.37;;
19278;SDS011;9773;47.062;15.446;2023-05-07T14:59:26;5.53;;;5.03;;
19278;SDS011;9773;47.062;15.446;2023-05-07T15:01:52;5.40;;;4.90;;
19278;SDS011;9773;47.062;15.446;2023-05-07T15:04:19;5.47;;;4.97;;
19278;SDS011;9773;47.062;15.446;2023-05-07T15:06:45;6.17;;;5.60;;
19278;SDS011;9773;47.062;15.446;2023-05-07T15:09:11;6.37;;;5.57;;
19278;SDS011;9773;47.062;15.446;2023-05-07T15:11:37;6.30;;;5.77;;
19278;SDS011;9773;47.062;15.446;2023-05-07T15:14:02;6.40;;;5.80;;